Comotara, Kansas
Current Conditions -  °F | °C
As of 10:54 AM on Wednesday 26 Nov 2014 (Local Time) from KAAO Reporting Station
Broken Clouds Broken Clouds  
Wind Chill: 37°   Ceiling: 4600
Heat Index: 46°   Visibility: 10mi
Dew Point: 24°   Wind: 29mph
Humidity: 42%   Direction: 310°NW
Pressure: 30.14"   Gusts: 38mph
Location:  37.7646°N, 97.2186°W
Report Text: KAAO 261654Z AUTO 31025G33KT 10SM BKN046 08/M04 A3014 RMK AO2 PK WND 31035/1619 SLP212 T00781044
Loading
Personal Weather Stations






























Interactive Weather Map New forecast layout! Learn more

10-Day Weather Forecast

Advertisements
Track Severe Weather on mobile